createdAt,value
2022-12-09T00:00:27.518Z,-1.15
2022-12-09T00:02:54.428Z,-1.24
2022-12-09T00:05:21.521Z,-1.24
2022-12-09T00:07:48.175Z,-1.20
2022-12-09T00:10:14.834Z,-1.16
2022-12-09T00:12:41.589Z,-1.20
2022-12-09T00:15:08.848Z,-1.30
2022-12-09T00:17:35.647Z,-1.29
2022-12-09T00:20:02.540Z,-1.33
2022-12-09T00:22:29.362Z,-1.39
2022-12-09T00:24:55.972Z,-1.28
2022-12-09T00:27:22.618Z,-1.35
2022-12-09T00:29:49.186Z,-1.29
2022-12-09T00:32:15.732Z,-1.30
2022-12-09T00:34:42.441Z,-1.41
2022-12-09T00:37:09.141Z,-1.33
2022-12-09T00:39:35.947Z,-1.45
2022-12-09T00:42:02.623Z,-1.51
2022-12-09T00:44:29.256Z,-1.48
2022-12-09T00:46:56.024Z,-1.39
2022-12-09T00:49:22.792Z,-1.40
2022-12-09T00:51:49.407Z,-1.33
2022-12-09T00:54:16.107Z,-1.41
2022-12-09T00:56:42.777Z,-1.36
2022-12-09T00:59:09.468Z,-1.48
2022-12-09T01:01:36.051Z,-1.45
2022-12-09T01:04:05.373Z,-1.41
2022-12-09T01:06:32.024Z,-1.41
2022-12-09T01:08:59.455Z,-1.43
2022-12-09T01:11:28.521Z,-1.40
2022-12-09T01:13:58.421Z,-1.53
2022-12-09T01:16:27.586Z,-1.53
2022-12-09T01:18:57.378Z,-1.48
2022-12-09T01:21:24.624Z,-1.42
2022-12-09T01:23:51.392Z,-1.52
2022-12-09T01:26:18.001Z,-1.44
2022-12-09T01:28:44.561Z,-1.48
2022-12-09T01:31:17.810Z,-1.41
2022-12-09T01:33:45.365Z,-1.43
2022-12-09T01:36:24.146Z,-1.37
2022-12-09T01:38:50.711Z,-1.66
2022-12-09T01:41:18.048Z,-1.43
2022-12-09T01:43:45.967Z,-1.56
2022-12-09T01:46:13.019Z,-1.56
2022-12-09T01:48:46.059Z,-1.53
2022-12-09T01:51:16.972Z,-1.53
2022-12-09T01:53:47.733Z,-1.63
2022-12-09T01:56:29.217Z,-1.64
2022-12-09T01:59:00.632Z,-1.67
2022-12-09T02:01:28.218Z,-1.74
2022-12-09T02:03:55.568Z,-1.90
2022-12-09T02:06:22.905Z,-1.90
2022-12-09T02:08:50.745Z,-2.01
2022-12-09T02:12:09.510Z,-1.95
2022-12-09T02:15:00.083Z,-1.97
2022-12-09T02:17:41.878Z,-2.08
2022-12-09T02:20:10.155Z,-2.02
2022-12-09T02:22:42.848Z,-2.02
2022-12-09T02:25:30.896Z,-2.00
2022-12-09T02:28:32.681Z,-1.92
2022-12-09T02:31:24.836Z,-1.96
2022-12-09T02:33:58.055Z,-1.98
2022-12-09T02:36:28.599Z,-1.97
2022-12-09T02:38:57.911Z,-1.84
2022-12-09T02:41:29.252Z,-1.85
2022-12-09T02:44:13.552Z,-1.88
2022-12-09T02:46:41.932Z,-1.84
2022-12-09T02:49:12.360Z,-1.79
2022-12-09T02:51:42.433Z,-1.73
2022-12-09T02:54:19.573Z,-1.65
2022-12-09T02:56:55.732Z,-1.63
2022-12-09T02:59:23.492Z,-1.75
2022-12-09T03:02:31.479Z,-1.62
2022-12-09T03:05:23.878Z,-1.69
2022-12-09T03:08:23.749Z,-1.66
2022-12-09T03:11:09.013Z,-1.54
2022-12-09T03:13:38.856Z,-1.60
2022-12-09T03:16:16.905Z,-1.67
2022-12-09T03:18:54.190Z,-1.88
2022-12-09T03:21:26.227Z,-1.59
2022-12-09T03:23:56.352Z,-1.60
2022-12-09T03:26:26.353Z,-1.91
2022-12-09T03:28:55.829Z,-1.77
2022-12-09T03:31:25.644Z,-1.72
2022-12-09T03:33:57.936Z,-1.63
2022-12-09T03:36:29.302Z,-1.82
2022-12-09T03:38:58.002Z,-1.72
2022-12-09T03:41:33.327Z,-1.60
2022-12-09T03:44:16.453Z,-1.66
2022-12-09T03:46:43.718Z,-1.63
2022-12-09T03:49:11.583Z,-1.59
2022-12-09T03:51:45.125Z,-1.53
2022-12-09T03:54:23.609Z,-1.64
2022-12-09T03:56:54.949Z,-1.66
2022-12-09T03:59:25.033Z,-1.43
2022-12-09T04:01:52.860Z,-1.36
2022-12-09T04:04:20.291Z,-1.37
2022-12-09T04:06:51.075Z,-1.43
2022-12-09T04:09:17.949Z,-1.40
2022-12-09T04:11:44.620Z,-1.61
2022-12-09T04:14:15.466Z,-1.51
2022-12-09T04:16:43.551Z,-1.55
2022-12-09T04:19:10.319Z,-1.78
2022-12-09T04:21:36.894Z,-1.84
2022-12-09T04:24:03.854Z,-1.69
2022-12-09T04:26:30.554Z,-1.49
2022-12-09T04:28:58.218Z,-1.53
2022-12-09T04:31:25.155Z,-1.55
2022-12-09T04:33:52.024Z,-1.47
2022-12-09T04:36:20.436Z,-1.49
2022-12-09T04:38:47.793Z,-1.47
2022-12-09T04:41:15.320Z,-1.60
2022-12-09T04:43:41.947Z,-1.59
2022-12-09T04:46:12.897Z,-1.34
2022-12-09T04:48:39.888Z,-1.47
2022-12-09T04:51:11.871Z,-1.50
2022-12-09T04:53:39.466Z,-1.46
2022-12-09T04:56:08.645Z,-1.34
2022-12-09T04:58:35.541Z,-1.43
2022-12-09T05:01:10.071Z,-1.50
2022-12-09T05:03:37.282Z,-1.61
2022-12-09T05:06:10.445Z,-1.41
2022-12-09T05:08:38.427Z,-1.71
2022-12-09T05:11:05.802Z,-1.52
2022-12-09T05:13:33.200Z,-1.30
2022-12-09T05:16:02.040Z,-1.17
2022-12-09T05:18:29.836Z,-1.12
2022-12-09T05:20:56.716Z,-1.14
2022-12-09T05:23:23.810Z,-1.14
2022-12-09T05:25:50.726Z,-1.31
2022-12-09T05:28:17.775Z,-1.22
2022-12-09T05:30:44.509Z,-1.14
2022-12-09T05:33:11.617Z,-1.20
2022-12-09T05:35:49.051Z,-1.10
2022-12-09T05:38:19.028Z,-1.26
2022-12-09T05:40:45.982Z,-1.07
2022-12-09T05:43:12.738Z,-1.07
2022-12-09T05:45:39.709Z,-0.97
2022-12-09T05:48:06.901Z,-1.07
2022-12-09T05:50:33.588Z,-0.96
2022-12-09T05:53:00.355Z,-0.98
2022-12-09T05:55:27.598Z,-1.03
2022-12-09T05:57:55.101Z,-0.96
2022-12-09T06:00:22.653Z,-0.90
2022-12-09T06:02:49.467Z,-0.90
2022-12-09T06:05:16.370Z,-0.98
2022-12-09T06:07:43.185Z,-0.82
2022-12-09T06:10:11.051Z,-0.91
2022-12-09T06:12:38.526Z,-0.95
2022-12-09T06:15:09.631Z,-1.13
2022-12-09T06:17:37.301Z,-0.73
2022-12-09T06:20:05.240Z,-0.85
2022-12-09T06:22:32.176Z,-0.83
2022-12-09T06:24:58.699Z,-0.77
2022-12-09T06:27:25.345Z,-0.71
2022-12-09T06:29:51.884Z,-0.66
2022-12-09T06:32:18.787Z,-0.66
2022-12-09T06:34:45.690Z,-0.81
2022-12-09T06:37:12.715Z,-0.72
2022-12-09T06:39:39.597Z,-0.69
2022-12-09T06:42:06.318Z,-0.84
2022-12-09T06:44:33.165Z,-0.72
2022-12-09T06:47:00.378Z,-0.68
2022-12-09T06:49:27.381Z,-0.77
2022-12-09T06:51:54.600Z,-0.88
2022-12-09T06:54:21.257Z,-0.74
2022-12-09T06:56:48.461Z,-1.04
2022-12-09T06:59:15.565Z,-0.89
2022-12-09T07:01:42.818Z,-0.64
2022-12-09T07:04:13.447Z,-0.68
2022-12-09T07:06:43.447Z,-0.70
2022-12-09T07:09:21.492Z,-0.72
2022-12-09T07:11:49.560Z,-0.69
2022-12-09T07:14:18.432Z,-0.56
2022-12-09T07:16:45.410Z,-0.61
2022-12-09T07:19:18.050Z,-0.50
2022-12-09T07:21:45.522Z,-0.48
2022-12-09T07:24:13.264Z,-0.35
2022-12-09T07:26:40.176Z,-0.35
2022-12-09T07:29:07.993Z,-0.51
2022-12-09T07:31:35.694Z,-0.32
2022-12-09T07:34:03.941Z,-0.31
2022-12-09T07:36:32.932Z,-0.22
2022-12-09T07:39:02.547Z,-0.23
2022-12-09T07:41:29.713Z,-0.20
2022-12-09T07:43:56.608Z,-0.19
2022-12-09T07:46:24.334Z,-0.14
2022-12-09T07:48:51.357Z,-0.16
2022-12-09T07:51:18.621Z,-0.30
2022-12-09T07:53:46.808Z,-0.01
2022-12-09T07:56:15.142Z,-0.05
2022-12-09T07:58:43.303Z,-0.11
2022-12-09T08:01:17.982Z,-0.14
2022-12-09T08:03:46.480Z,0.02
2022-12-09T08:06:16.148Z,-0.09
2022-12-09T08:08:44.171Z,-0.13
2022-12-09T08:11:16.683Z,-0.06
2022-12-09T08:13:44.423Z,-0.05
2022-12-09T08:16:15.373Z,0.18
2022-12-09T08:18:43.042Z,0.30
2022-12-09T08:21:13.407Z,0.35
2022-12-09T08:23:40.989Z,0.23
2022-12-09T08:26:12.208Z,0.47
2022-12-09T08:28:40.373Z,0.46
2022-12-09T08:31:09.253Z,0.35
2022-12-09T08:33:36.735Z,0.47
2022-12-09T08:36:09.075Z,0.38
2022-12-09T08:38:36.449Z,0.27
2022-12-09T08:41:15.808Z,0.62
2022-12-09T08:43:44.275Z,0.58
2022-12-09T08:46:12.004Z,0.25
2022-12-09T08:48:42.787Z,0.51
2022-12-09T08:51:12.148Z,0.54
2022-12-09T08:53:39.775Z,0.87
2022-12-09T08:56:14.653Z,0.91
2022-12-09T08:58:42.557Z,0.98
2022-12-09T09:01:18.851Z,0.68
2022-12-09T09:03:46.992Z,1.18
2022-12-09T09:06:15.212Z,1.17
2022-12-09T09:08:42.113Z,1.16
2022-12-09T09:11:11.473Z,1.11
2022-12-09T09:13:43.037Z,0.88
2022-12-09T09:16:12.470Z,1.14
2022-12-09T09:18:41.013Z,1.08
2022-12-09T09:21:09.905Z,1.25
2022-12-09T09:23:37.516Z,1.36
2022-12-09T09:26:04.896Z,1.31
2022-12-09T09:28:32.103Z,1.14
2022-12-09T09:31:04.274Z,1.12
2022-12-09T09:33:31.676Z,1.07
2022-12-09T09:36:02.750Z,1.27
2022-12-09T09:38:33.300Z,1.12
2022-12-09T09:41:02.045Z,1.36
2022-12-09T09:43:33.669Z,1.45
2022-12-09T09:46:00.381Z,1.36
2022-12-09T09:48:31.877Z,1.18
2022-12-09T09:51:13.234Z,1.73
2022-12-09T09:53:41.168Z,1.15
2022-12-09T09:56:17.933Z,1.12
2022-12-09T09:58:54.182Z,1.55
2022-12-09T10:01:22.971Z,1.75
2022-12-09T10:04:20.821Z,1.75
2022-12-09T10:07:05.553Z,1.63
2022-12-09T10:09:46.963Z,1.48
2022-12-09T10:12:23.458Z,1.63
2022-12-09T10:15:00.720Z,1.33
2022-12-09T10:17:34.108Z,1.59
2022-12-09T10:20:11.688Z,1.60
2022-12-09T10:22:48.232Z,1.44
2022-12-09T10:25:24.026Z,1.36
2022-12-09T10:28:17.428Z,1.34
2022-12-09T10:30:45.109Z,1.31
2022-12-09T10:33:14.659Z,1.25
2022-12-09T10:35:41.840Z,1.21
2022-12-09T10:38:11.849Z,1.34
2022-12-09T10:40:48.195Z,1.36
2022-12-09T10:43:41.017Z,1.48
2022-12-09T10:46:19.493Z,1.40
2022-12-09T10:48:47.526Z,1.73
2022-12-09T10:51:47.525Z,1.46
2022-12-09T10:54:22.285Z,1.32
2022-12-09T10:57:12.516Z,1.49
2022-12-09T10:59:41.021Z,1.37
2022-12-09T11:02:07.954Z,1.34
2022-12-09T11:04:36.344Z,1.64
2022-12-09T11:07:11.953Z,1.71
2022-12-09T11:09:42.030Z,1.58
2022-12-09T11:12:41.324Z,1.54
2022-12-09T11:15:11.775Z,1.52
2022-12-09T11:33:36.608Z,1.38
2022-12-09T11:36:09.410Z,1.71
2022-12-09T11:38:51.515Z,1.71
2022-12-09T11:41:38.648Z,1.60
2022-12-09T11:44:26.426Z,1.63
2022-12-09T11:47:00.725Z,1.64
2022-12-09T11:49:31.632Z,1.45
2022-12-09T11:52:03.499Z,1.52
2022-12-09T11:54:43.458Z,1.18
2022-12-09T11:57:35.185Z,1.65
2022-12-09T12:00:07.584Z,1.63
2022-12-09T12:02:40.581Z,1.58
2022-12-09T12:05:21.900Z,1.64
2022-12-09T12:08:27.638Z,1.89
2022-12-09T12:11:13.548Z,1.84
2022-12-09T12:13:50.849Z,1.52
2022-12-09T12:16:36.090Z,1.66
2022-12-09T12:19:34.926Z,1.85
2022-12-09T12:22:32.428Z,2.13
2022-12-09T12:25:18.299Z,1.80
2022-12-09T12:28:04.014Z,1.47
2022-12-09T12:31:04.938Z,1.34
2022-12-09T12:34:15.920Z,1.68
2022-12-09T12:36:42.372Z,1.65
2022-12-09T12:39:35.256Z,1.41
2022-12-09T12:42:22.460Z,1.70
2022-12-09T12:45:30.738Z,1.66
2022-12-09T12:48:26.761Z,1.38
2022-12-09T12:51:16.513Z,1.10
2022-12-09T12:53:55.223Z,1.11
2022-12-09T12:56:53.111Z,1.36
2022-12-09T12:59:37.136Z,1.42
2022-12-09T13:02:28.593Z,1.37
2022-12-09T13:05:01.186Z,1.46
2022-12-09T13:07:41.421Z,1.44
2022-12-09T13:10:37.099Z,1.38
2022-12-09T13:13:05.653Z,1.15
2022-12-09T13:15:35.088Z,1.10
2022-12-09T13:18:11.681Z,1.12
2022-12-09T13:20:41.185Z,1.31
2022-12-09T13:23:20.191Z,1.54
2022-12-09T13:25:56.795Z,1.34
2022-12-09T13:28:33.689Z,1.65
2022-12-09T13:31:00.648Z,1.53
2022-12-09T13:33:49.823Z,1.28
2022-12-09T13:36:41.210Z,1.50
2022-12-09T13:39:29.926Z,1.33
2022-12-09T13:42:15.358Z,1.36
2022-12-09T13:44:42.114Z,1.23
2022-12-09T13:47:25.501Z,1.42
2022-12-09T13:49:58.688Z,1.38
2022-12-09T13:53:10.331Z,1.42
2022-12-09T13:55:47.056Z,1.42
2022-12-09T13:58:19.538Z,1.65
2022-12-09T14:01:06.649Z,1.53
2022-12-09T14:03:37.307Z,1.19
2022-12-09T14:06:26.035Z,1.35
2022-12-09T14:08:56.796Z,1.15
2022-12-09T14:11:38.546Z,0.91
2022-12-09T14:14:23.211Z,1.25
2022-12-09T14:16:53.546Z,1.27
2022-12-09T14:19:25.872Z,1.09
2022-12-09T14:22:18.293Z,1.28
2022-12-09T14:24:49.979Z,1.00
2022-12-09T14:27:30.844Z,0.99
2022-12-09T14:30:01.845Z,0.88
2022-12-09T14:32:31.832Z,0.68
2022-12-09T14:35:10.178Z,0.72
2022-12-09T14:37:55.699Z,0.59
2022-12-09T14:40:46.910Z,0.55
2022-12-09T14:43:34.249Z,0.61
2022-12-09T14:46:04.061Z,0.41
2022-12-09T14:48:36.694Z,0.67
2022-12-09T14:51:19.523Z,0.49
2022-12-09T14:53:59.510Z,0.56
2022-12-09T14:56:28.003Z,0.62
2022-12-09T14:59:04.445Z,0.64
2022-12-09T15:01:50.522Z,0.65
2022-12-09T15:04:23.058Z,0.49
2022-12-09T15:07:20.409Z,0.38
2022-12-09T15:09:57.551Z,0.48
2022-12-09T15:12:46.472Z,0.46
2022-12-09T15:15:23.832Z,0.04
2022-12-09T15:17:55.872Z,0.10
2022-12-09T15:20:42.701Z,0.20
2022-12-09T15:23:31.040Z,0.06
2022-12-09T15:25:59.958Z,0.02
2022-12-09T15:28:30.057Z,0.09
2022-12-09T15:31:00.294Z,0.13
2022-12-09T15:37:39.111Z,-0.29
2022-12-09T15:40:12.462Z,-0.47
2022-12-09T15:42:44.245Z,-0.09
2022-12-09T15:45:12.457Z,-0.31
2022-12-09T15:47:41.406Z,-0.57
2022-12-09T15:50:14.592Z,-0.07
2022-12-09T15:53:04.375Z,0.05
2022-12-09T15:55:38.424Z,0.00
2022-12-09T15:58:08.053Z,-0.01
2022-12-09T16:00:40.542Z,-0.22
2022-12-09T16:03:07.719Z,-0.13
2022-12-09T16:05:41.558Z,0.19
2022-12-09T16:08:09.822Z,-0.01
2022-12-09T16:10:48.579Z,0.17
2022-12-09T16:13:17.614Z,0.20
2022-12-09T16:15:47.932Z,0.25
2022-12-09T16:18:21.456Z,0.02
2022-12-09T16:21:00.836Z,0.04
2022-12-09T16:23:27.825Z,0.09
2022-12-09T16:26:06.457Z,0.20
2022-12-09T16:28:33.922Z,0.22
2022-12-09T16:31:03.930Z,0.18
2022-12-09T16:33:37.464Z,-0.02
2022-12-09T16:36:06.533Z,0.11
2022-12-09T16:38:35.221Z,-0.06
2022-12-09T16:41:05.025Z,0.15
2022-12-09T16:43:31.788Z,-0.01
2022-12-09T16:46:13.285Z,0.05
2022-12-09T16:48:40.141Z,0.00
2022-12-09T16:51:10.834Z,0.13
2022-12-09T16:53:43.182Z,-0.10
2022-12-09T16:56:20.145Z,0.19
2022-12-09T16:58:46.766Z,0.12
2022-12-09T17:01:15.925Z,0.09
2022-12-09T17:03:51.480Z,-0.09
2022-12-09T17:06:20.301Z,-0.02
2022-12-09T17:08:46.781Z,-0.03
2022-12-09T17:11:14.548Z,0.00
2022-12-09T17:13:41.064Z,0.06
2022-12-09T17:16:08.123Z,0.14
2022-12-09T17:18:35.409Z,0.11
2022-12-09T17:21:08.466Z,-0.25
2022-12-09T17:23:39.632Z,0.07
2022-12-09T17:26:09.941Z,-0.13
2022-12-09T17:28:37.560Z,0.05
2022-12-09T17:31:09.582Z,0.03
2022-12-09T17:33:36.962Z,0.18
2022-12-09T17:36:03.957Z,0.14
2022-12-09T17:38:30.703Z,0.22
2022-12-09T17:40:57.276Z,0.08
2022-12-09T17:43:23.736Z,0.18
2022-12-09T17:45:50.295Z,0.12
2022-12-09T17:48:16.950Z,0.07
2022-12-09T17:50:44.127Z,0.05
2022-12-09T17:53:10.726Z,-0.16
2022-12-09T17:55:38.937Z,-0.39
2022-12-09T17:58:05.471Z,-0.01
2022-12-09T18:00:33.632Z,0.05
2022-12-09T18:03:00.327Z,0.18
2022-12-09T18:05:26.903Z,0.11
2022-12-09T18:07:53.459Z,0.17
2022-12-09T18:10:20.007Z,0.30
2022-12-09T18:12:46.585Z,0.10
2022-12-09T18:15:13.611Z,0.24
2022-12-09T18:17:41.066Z,0.20
2022-12-09T18:20:08.471Z,0.06
2022-12-09T18:22:35.111Z,0.33
2022-12-09T18:25:02.815Z,0.37
2022-12-09T18:27:29.846Z,0.32
2022-12-09T18:29:56.325Z,0.33
2022-12-09T18:32:22.868Z,0.02
2022-12-09T18:34:49.397Z,0.32
2022-12-09T18:37:16.008Z,0.25
2022-12-09T18:39:42.494Z,0.35
2022-12-09T18:42:09.125Z,0.26
2022-12-09T18:44:35.659Z,0.33
2022-12-09T18:47:02.139Z,0.23
2022-12-09T18:49:29.387Z,0.16
2022-12-09T18:51:56.019Z,0.27
2022-12-09T18:54:27.634Z,0.27
2022-12-09T18:56:55.996Z,0.29
2022-12-09T18:59:25.068Z,0.28
2022-12-09T19:01:52.349Z,0.22
2022-12-09T19:04:22.221Z,0.30
2022-12-09T19:06:51.101Z,0.26
2022-12-09T19:09:23.522Z,0.35
2022-12-09T19:11:51.356Z,0.28
2022-12-09T19:14:20.060Z,0.18
2022-12-09T19:16:48.036Z,0.32
2022-12-09T19:19:17.657Z,0.17
2022-12-09T19:21:45.484Z,0.26
2022-12-09T19:24:21.843Z,0.21
2022-12-09T19:26:48.673Z,0.17
2022-12-09T19:29:15.715Z,0.34
2022-12-09T19:31:47.686Z,0.36
2022-12-09T19:34:17.667Z,0.33
2022-12-09T19:36:45.767Z,0.32
2022-12-09T19:39:13.914Z,-0.04
2022-12-09T19:41:41.348Z,0.25
2022-12-09T19:44:08.569Z,0.37
2022-12-09T19:46:35.346Z,0.16
2022-12-09T19:49:02.868Z,0.34
2022-12-09T19:51:29.628Z,0.29
2022-12-09T19:53:58.803Z,0.18
2022-12-09T19:56:25.827Z,0.13
2022-12-09T19:58:53.264Z,0.40
2022-12-09T20:01:25.630Z,0.06
2022-12-09T20:03:58.179Z,0.12
2022-12-09T20:06:25.143Z,0.34
2022-12-09T20:08:51.730Z,0.02
2022-12-09T20:11:21.185Z,0.31
2022-12-09T20:13:48.357Z,0.29
2022-12-09T20:16:17.830Z,0.30
2022-12-09T20:18:45.408Z,-0.01
2022-12-09T20:21:13.465Z,0.25
2022-12-09T20:23:41.347Z,0.20
2022-12-09T20:26:15.512Z,0.28
2022-12-09T20:28:44.196Z,0.12
2022-12-09T20:31:16.964Z,0.24
2022-12-09T20:33:43.791Z,0.13
2022-12-09T20:36:15.702Z,0.19
2022-12-09T20:38:43.337Z,0.29
2022-12-09T20:41:13.156Z,0.26
2022-12-09T20:43:42.099Z,0.15
2022-12-09T20:46:14.424Z,0.25
2022-12-09T20:48:41.894Z,0.13
2022-12-09T20:51:12.492Z,0.26
2022-12-09T20:53:40.497Z,0.11
2022-12-09T20:56:07.623Z,0.30
2022-12-09T20:58:35.759Z,0.32
2022-12-09T21:01:19.024Z,0.32
2022-12-09T21:03:47.710Z,0.11
2022-12-09T21:06:16.301Z,0.22
2022-12-09T21:08:43.543Z,0.24
2022-12-09T21:11:20.142Z,0.16
2022-12-09T21:13:49.005Z,0.34
2022-12-09T21:16:20.230Z,0.08
2022-12-09T21:18:50.867Z,0.18
2022-12-09T21:21:18.563Z,0.22
2022-12-09T21:23:45.215Z,0.23
2022-12-09T21:26:14.528Z,0.06
2022-12-09T21:28:42.311Z,0.32
2022-12-09T21:31:20.478Z,0.36
2022-12-09T21:33:48.713Z,0.34
2022-12-09T21:36:18.248Z,0.30
2022-12-09T21:38:44.891Z,0.36
2022-12-09T21:41:22.014Z,0.35
2022-12-09T21:43:48.805Z,0.19
2022-12-09T21:46:19.024Z,0.02
2022-12-09T21:48:51.764Z,0.25
2022-12-09T21:51:19.811Z,0.26
2022-12-09T21:53:47.319Z,0.28
2022-12-09T21:56:16.925Z,0.28
2022-12-09T21:58:44.794Z,0.39
2022-12-09T22:01:17.124Z,0.40
2022-12-09T22:03:44.150Z,0.34
2022-12-09T22:06:11.974Z,0.30
2022-12-09T22:08:39.722Z,0.38
2022-12-09T22:11:10.736Z,0.33
2022-12-09T22:13:39.729Z,0.16
2022-12-09T22:16:09.284Z,0.33
2022-12-09T22:18:36.450Z,0.33
2022-12-09T22:21:25.524Z,0.30
2022-12-09T22:23:54.647Z,0.21
2022-12-09T22:26:22.057Z,0.35
2022-12-09T22:28:48.553Z,0.31
2022-12-09T22:31:20.437Z,0.31
2022-12-09T22:33:47.507Z,0.28
2022-12-09T22:36:14.782Z,0.30
2022-12-09T22:38:42.857Z,0.15
2022-12-09T22:41:15.384Z,0.32
2022-12-09T22:43:42.668Z,0.26
2022-12-09T22:46:15.869Z,0.25
2022-12-09T22:48:42.680Z,0.17
2022-12-09T22:51:29.738Z,0.36
2022-12-09T22:53:57.856Z,0.36
2022-12-09T22:56:25.531Z,0.39
2022-12-09T22:58:52.174Z,0.33
2022-12-09T23:17:26.713Z,-0.15
2022-12-09T23:19:53.265Z,-0.17
2022-12-09T23:22:19.772Z,-0.26
2022-12-09T23:24:47.870Z,-0.06
2022-12-09T23:27:14.449Z,-0.10
2022-12-09T23:29:41.001Z,-0.01
2022-12-09T23:32:07.551Z,0.10
2022-12-09T23:34:34.079Z,0.21
2022-12-09T23:37:00.680Z,0.15
2022-12-09T23:39:27.345Z,0.00
2022-12-09T23:41:54.472Z,0.18
2022-12-09T23:44:21.216Z,0.19
2022-12-09T23:46:48.295Z,0.18
2022-12-09T23:49:14.931Z,-0.01
2022-12-09T23:51:43.760Z,0.19
2022-12-09T23:54:11.854Z,0.25
2022-12-09T23:56:43.960Z,0.26
2022-12-09T23:59:12.519Z,0.25
